< < Back
Terminal Aerodrome Forecast


Current Version              Previous Versions:   1  2  3  4  5  6  7  8  9  

Terminal Aerodrome Forecast

257
FTUS42 KFFC 292337
TAFFTY
TAF
KFTY 292337Z 3000/3024 09004KT P6SM FEW030 SCT150
     FM301000 04003KT P6SM SCT120
     FM301500 35006KT P6SM FEW040
     FM301800 34007KT P6SM VCSH BKN050 PROB30 3019/3023 6SM -TSRA
      BKN040CB=



Latest METAR

590
SAUS70 KWBC 300000 RRN
MTRFTY
METAR KFTY 292353Z 18005KT 10SM CLR 31/24 A2995 RMK AO2 SLP129 60057
T03110239 10344 20261 53004


USA.gov is the U.S. government's official web portal to all federal, state and local government web resources and services.